sensor_id;sensor_type;location;lat;lon;timestamp;temperature;humidity
22173;DHT22;11252;50.596;17.648;2024-02-15T00:00:52;7.20;92.20
22173;DHT22;11252;50.596;17.648;2024-02-15T00:03:20;7.30;92.20
22173;DHT22;11252;50.596;17.648;2024-02-15T00:05:51;7.20;92.20
22173;DHT22;11252;50.596;17.648;2024-02-15T00:08:19;7.20;92.20
22173;DHT22;11252;50.596;17.648;2024-02-15T00:10:48;7.20;92.20
22173;DHT22;11252;50.596;17.648;2024-02-15T00:13:15;7.20;92.20
22173;DHT22;11252;50.596;17.648;2024-02-15T00:15:42;7.30;92.20
22173;DHT22;11252;50.596;17.648;2024-02-15T00:18:09;7.30;92.20
22173;DHT22;11252;50.596;17.648;2024-02-15T00:20:39;7.30;92.20
22173;DHT22;11252;50.596;17.648;2024-02-15T00:23:06;7.30;92.20
22173;DHT22;11252;50.596;17.648;2024-02-15T00:25:36;7.30;92.20
22173;DHT22;11252;50.596;17.648;2024-02-15T00:28:03;7.40;92.20
22173;DHT22;11252;50.596;17.648;2024-02-15T00:30:30;7.40;92.20
22173;DHT22;11252;50.596;17.648;2024-02-15T00:32:58;7.30;92.20
22173;DHT22;11252;50.596;17.648;2024-02-15T00:35:29;7.30;92.20
22173;DHT22;11252;50.596;17.648;2024-02-15T00:37:56;7.30;92.20
22173;DHT22;11252;50.596;17.648;2024-02-15T00:40:24;7.30;92.20
22173;DHT22;11252;50.596;17.648;2024-02-15T00:42:51;7.30;92.20
22173;DHT22;11252;50.596;17.648;2024-02-15T00:45:18;7.30;92.20
22173;DHT22;11252;50.596;17.648;2024-02-15T00:47:45;7.30;92.20
22173;DHT22;11252;50.596;17.648;2024-02-15T00:50:12;7.30;92.20
22173;DHT22;11252;50.596;17.648;2024-02-15T00:52:40;7.30;92.20
22173;DHT22;11252;50.596;17.648;2024-02-15T00:55:07;7.30;92.20
22173;DHT22;11252;50.596;17.648;2024-02-15T00:57:34;7.30;92.20
22173;DHT22;11252;50.596;17.648;2024-02-15T01:00:04;7.30;92.20
22173;DHT22;11252;50.596;17.648;2024-02-15T01:02:33;7.20;92.20
22173;DHT22;11252;50.596;17.648;2024-02-15T01:05:00;7.20;92.20
22173;DHT22;11252;50.596;17.648;2024-02-15T01:07:27;7.20;92.20
22173;DHT22;11252;50.596;17.648;2024-02-15T01:09:55;7.20;92.20
22173;DHT22;11252;50.596;17.648;2024-02-15T01:12:22;7.20;92.20
22173;DHT22;11252;50.596;17.648;2024-02-15T01:14:52;7.20;92.20
22173;DHT22;11252;50.596;17.648;2024-02-15T01:17:19;7.20;92.20
22173;DHT22;11252;50.596;17.648;2024-02-15T01:19:46;7.20;92.20
22173;DHT22;11252;50.596;17.648;2024-02-15T01:22:13;7.20;92.20
22173;DHT22;11252;50.596;17.648;2024-02-15T01:24:40;7.20;92.20
22173;DHT22;11252;50.596;17.648;2024-02-15T01:27:07;7.10;92.20
22173;DHT22;11252;50.596;17.648;2024-02-15T01:29:36;7.10;92.20
22173;DHT22;11252;50.596;17.648;2024-02-15T01:32:03;7.10;92.20
22173;DHT22;11252;50.596;17.648;2024-02-15T01:34:32;7.10;92.20
22173;DHT22;11252;50.596;17.648;2024-02-15T01:36:59;7.00;92.20
22173;DHT22;11252;50.596;17.648;2024-02-15T01:39:27;7.00;92.20
22173;DHT22;11252;50.596;17.648;2024-02-15T01:41:54;7.00;92.20
22173;DHT22;11252;50.596;17.648;2024-02-15T01:44:23;6.90;92.20
22173;DHT22;11252;50.596;17.648;2024-02-15T01:46:51;6.90;92.20
22173;DHT22;11252;50.596;17.648;2024-02-15T01:49:22;6.90;92.20
22173;DHT22;11252;50.596;17.648;2024-02-15T01:51:51;6.80;92.20
22173;DHT22;11252;50.596;17.648;2024-02-15T01:54:20;6.80;92.20
22173;DHT22;11252;50.596;17.648;2024-02-15T01:56:48;6.80;92.20
22173;DHT22;11252;50.596;17.648;2024-02-15T01:59:16;6.80;92.20
22173;DHT22;11252;50.596;17.648;2024-02-15T02:01:44;6.80;92.20
22173;DHT22;11252;50.596;17.648;2024-02-15T02:04:14;6.80;92.20
22173;DHT22;11252;50.596;17.648;2024-02-15T02:06:41;6.70;92.20
22173;DHT22;11252;50.596;17.648;2024-02-15T02:09:12;6.70;92.20
22173;DHT22;11252;50.596;17.648;2024-02-15T02:11:43;6.70;92.20
22173;DHT22;11252;50.596;17.648;2024-02-15T02:14:11;6.80;92.20
22173;DHT22;11252;50.596;17.648;2024-02-15T02:16:39;6.80;92.20
22173;DHT22;11252;50.596;17.648;2024-02-15T02:19:09;6.80;92.20
22173;DHT22;11252;50.596;17.648;2024-02-15T02:21:37;6.80;92.20
22173;DHT22;11252;50.596;17.648;2024-02-15T02:24:13;6.80;92.20
22173;DHT22;11252;50.596;17.648;2024-02-15T02:26:41;6.80;92.20
22173;DHT22;11252;50.596;17.648;2024-02-15T02:29:08;6.70;92.20
22173;DHT22;11252;50.596;17.648;2024-02-15T02:31:36;6.70;92.20
22173;DHT22;11252;50.596;17.648;2024-02-15T02:34:04;6.70;92.20
22173;DHT22;11252;50.596;17.648;2024-02-15T02:36:31;6.70;92.20
22173;DHT22;11252;50.596;17.648;2024-02-15T02:39:01;6.70;92.20
22173;DHT22;11252;50.596;17.648;2024-02-15T02:41:32;6.70;92.20
22173;DHT22;11252;50.596;17.648;2024-02-15T02:43:59;6.60;92.20
22173;DHT22;11252;50.596;17.648;2024-02-15T02:46:31;6.60;92.20
22173;DHT22;11252;50.596;17.648;2024-02-15T02:48:58;6.60;92.20
22173;DHT22;11252;50.596;17.648;2024-02-15T02:51:26;6.60;92.20
22173;DHT22;11252;50.596;17.648;2024-02-15T02:53:53;6.70;92.20
22173;DHT22;11252;50.596;17.648;2024-02-15T02:56:20;6.70;92.20
22173;DHT22;11252;50.596;17.648;2024-02-15T02:58:47;6.70;92.20
22173;DHT22;11252;50.596;17.648;2024-02-15T03:01:14;6.70;92.20
22173;DHT22;11252;50.596;17.648;2024-02-15T03:03:44;6.70;92.20
22173;DHT22;11252;50.596;17.648;2024-02-15T03:06:12;6.60;92.20
22173;DHT22;11252;50.596;17.648;2024-02-15T03:08:39;6.60;92.20
22173;DHT22;11252;50.596;17.648;2024-02-15T03:11:06;6.60;92.20
22173;DHT22;11252;50.596;17.648;2024-02-15T03:13:33;6.60;92.20
22173;DHT22;11252;50.596;17.648;2024-02-15T03:16:01;6.60;92.20
22173;DHT22;11252;50.596;17.648;2024-02-15T03:18:28;6.60;92.20
22173;DHT22;11252;50.596;17.648;2024-02-15T03:20:55;6.60;92.20
22173;DHT22;11252;50.596;17.648;2024-02-15T03:23:23;6.60;92.20
22173;DHT22;11252;50.596;17.648;2024-02-15T03:25:51;6.50;92.20
22173;DHT22;11252;50.596;17.648;2024-02-15T03:28:20;6.50;92.20
22173;DHT22;11252;50.596;17.648;2024-02-15T03:30:48;6.40;92.20
22173;DHT22;11252;50.596;17.648;2024-02-15T03:33:15;6.40;92.20
22173;DHT22;11252;50.596;17.648;2024-02-15T03:35:42;6.40;92.20
22173;DHT22;11252;50.596;17.648;2024-02-15T03:38:09;6.30;92.20
22173;DHT22;11252;50.596;17.648;2024-02-15T03:40:36;6.30;92.20
22173;DHT22;11252;50.596;17.648;2024-02-15T03:43:08;6.30;92.20
22173;DHT22;11252;50.596;17.648;2024-02-15T03:45:36;6.30;92.20
22173;DHT22;11252;50.596;17.648;2024-02-15T03:48:05;6.30;92.20
22173;DHT22;11252;50.596;17.648;2024-02-15T03:50:33;6.30;92.20
22173;DHT22;11252;50.596;17.648;2024-02-15T03:53:00;6.20;92.20
22173;DHT22;11252;50.596;17.648;2024-02-15T03:55:27;6.20;92.20
22173;DHT22;11252;50.596;17.648;2024-02-15T03:57:54;6.20;92.20
22173;DHT22;11252;50.596;17.648;2024-02-15T04:00:24;6.20;92.20
22173;DHT22;11252;50.596;17.648;2024-02-15T04:02:55;6.20;92.20
22173;DHT22;11252;50.596;17.648;2024-02-15T04:05:23;6.20;92.20
22173;DHT22;11252;50.596;17.648;2024-02-15T04:07:50;6.20;92.20
22173;DHT22;11252;50.596;17.648;2024-02-15T04:10:20;6.20;92.20
22173;DHT22;11252;50.596;17.648;2024-02-15T04:12:47;6.10;92.20
22173;DHT22;11252;50.596;17.648;2024-02-15T04:15:15;6.10;92.20
22173;DHT22;11252;50.596;17.648;2024-02-15T04:17:45;6.10;92.20
22173;DHT22;11252;50.596;17.648;2024-02-15T04:20:13;6.10;92.20
22173;DHT22;11252;50.596;17.648;2024-02-15T04:22:42;6.00;92.20
22173;DHT22;11252;50.596;17.648;2024-02-15T04:25:10;6.00;92.20
22173;DHT22;11252;50.596;17.648;2024-02-15T04:27:45;5.90;92.20
22173;DHT22;11252;50.596;17.648;2024-02-15T04:30:16;5.90;92.20
22173;DHT22;11252;50.596;17.648;2024-02-15T04:32:51;5.80;92.20
22173;DHT22;11252;50.596;17.648;2024-02-15T04:35:19;5.80;92.20
22173;DHT22;11252;50.596;17.648;2024-02-15T04:37:47;5.80;92.20
22173;DHT22;11252;50.596;17.648;2024-02-15T04:40:14;5.80;92.20
22173;DHT22;11252;50.596;17.648;2024-02-15T04:42:42;5.70;92.20
22173;DHT22;11252;50.596;17.648;2024-02-15T04:45:12;5.70;92.20
22173;DHT22;11252;50.596;17.648;2024-02-15T04:47:42;5.70;92.20
22173;DHT22;11252;50.596;17.648;2024-02-15T04:50:13;5.60;92.20
22173;DHT22;11252;50.596;17.648;2024-02-15T04:52:40;5.60;92.20
22173;DHT22;11252;50.596;17.648;2024-02-15T04:55:12;5.60;92.20
22173;DHT22;11252;50.596;17.648;2024-02-15T04:57:39;5.60;92.20
22173;DHT22;11252;50.596;17.648;2024-02-15T05:00:08;5.60;92.20
22173;DHT22;11252;50.596;17.648;2024-02-15T05:02:39;5.60;92.20
22173;DHT22;11252;50.596;17.648;2024-02-15T05:05:09;5.60;92.20
22173;DHT22;11252;50.596;17.648;2024-02-15T05:07:36;5.60;92.20
22173;DHT22;11252;50.596;17.648;2024-02-15T05:10:07;5.60;92.20
22173;DHT22;11252;50.596;17.648;2024-02-15T05:12:37;5.60;92.20
22173;DHT22;11252;50.596;17.648;2024-02-15T05:15:07;5.70;92.20
22173;DHT22;11252;50.596;17.648;2024-02-15T05:17:39;5.70;92.20
22173;DHT22;11252;50.596;17.648;2024-02-15T05:20:11;5.70;92.20
22173;DHT22;11252;50.596;17.648;2024-02-15T05:22:43;5.70;92.20
22173;DHT22;11252;50.596;17.648;2024-02-15T05:25:17;5.70;92.20
22173;DHT22;11252;50.596;17.648;2024-02-15T05:27:55;5.80;92.20
22173;DHT22;11252;50.596;17.648;2024-02-15T05:30:24;5.80;92.20
22173;DHT22;11252;50.596;17.648;2024-02-15T05:32:52;5.80;92.20
22173;DHT22;11252;50.596;17.648;2024-02-15T05:35:21;5.80;92.20
22173;DHT22;11252;50.596;17.648;2024-02-15T05:37:49;5.80;92.20
22173;DHT22;11252;50.596;17.648;2024-02-15T05:40:16;5.80;92.20
22173;DHT22;11252;50.596;17.648;2024-02-15T05:42:44;5.80;92.20
22173;DHT22;11252;50.596;17.648;2024-02-15T05:47:52;5.70;92.20
22173;DHT22;11252;50.596;17.648;2024-02-15T05:50:20;5.70;92.20
22173;DHT22;11252;50.596;17.648;2024-02-15T05:52:48;5.80;92.20
22173;DHT22;11252;50.596;17.648;2024-02-15T05:55:16;5.80;92.20
22173;DHT22;11252;50.596;17.648;2024-02-15T05:57:44;5.80;92.20
22173;DHT22;11252;50.596;17.648;2024-02-15T06:00:12;5.80;92.20
22173;DHT22;11252;50.596;17.648;2024-02-15T06:02:48;5.70;92.20
22173;DHT22;11252;50.596;17.648;2024-02-15T06:05:17;5.70;92.20
22173;DHT22;11252;50.596;17.648;2024-02-15T06:07:53;5.70;92.20
22173;DHT22;11252;50.596;17.648;2024-02-15T06:10:21;5.60;92.20
22173;DHT22;11252;50.596;17.648;2024-02-15T06:12:48;5.60;92.20
22173;DHT22;11252;50.596;17.648;2024-02-15T06:15:15;5.60;92.20
22173;DHT22;11252;50.596;17.648;2024-02-15T06:17:43;5.70;92.20
22173;DHT22;11252;50.596;17.648;2024-02-15T06:20:15;5.70;92.20
22173;DHT22;11252;50.596;17.648;2024-02-15T06:22:48;5.80;92.20
22173;DHT22;11252;50.596;17.648;2024-02-15T06:25:15;5.80;92.20
22173;DHT22;11252;50.596;17.648;2024-02-15T06:27:48;5.90;92.20
22173;DHT22;11252;50.596;17.648;2024-02-15T06:30:19;6.00;92.20
22173;DHT22;11252;50.596;17.648;2024-02-15T06:33:05;6.00;92.20
22173;DHT22;11252;50.596;17.648;2024-02-15T06:35:52;6.00;92.20
22173;DHT22;11252;50.596;17.648;2024-02-15T06:38:37;6.00;92.20
22173;DHT22;11252;50.596;17.648;2024-02-15T06:41:23;5.90;92.20
22173;DHT22;11252;50.596;17.648;2024-02-15T06:43:52;5.90;92.20
22173;DHT22;11252;50.596;17.648;2024-02-15T06:46:20;5.90;92.20
22173;DHT22;11252;50.596;17.648;2024-02-15T06:48:47;5.80;92.20
22173;DHT22;11252;50.596;17.648;2024-02-15T06:51:15;5.80;92.20
22173;DHT22;11252;50.596;17.648;2024-02-15T06:53:43;5.80;92.20
22173;DHT22;11252;50.596;17.648;2024-02-15T06:56:10;5.80;92.20
22173;DHT22;11252;50.596;17.648;2024-02-15T06:58:39;5.80;92.20
22173;DHT22;11252;50.596;17.648;2024-02-15T07:01:07;5.90;92.20
22173;DHT22;11252;50.596;17.648;2024-02-15T07:03:36;5.90;92.20
22173;DHT22;11252;50.596;17.648;2024-02-15T07:06:03;6.00;92.20
22173;DHT22;11252;50.596;17.648;2024-02-15T07:08:31;6.00;92.20
22173;DHT22;11252;50.596;17.648;2024-02-15T07:10:59;6.20;92.20
22173;DHT22;11252;50.596;17.648;2024-02-15T07:13:26;6.20;92.20
22173;DHT22;11252;50.596;17.648;2024-02-15T07:15:54;6.30;92.20
22173;DHT22;11252;50.596;17.648;2024-02-15T07:18:21;6.40;92.20
22173;DHT22;11252;50.596;17.648;2024-02-15T07:20:55;6.50;92.20
22173;DHT22;11252;50.596;17.648;2024-02-15T07:23:27;6.60;92.20
22173;DHT22;11252;50.596;17.648;2024-02-15T07:25:54;6.70;92.20
22173;DHT22;11252;50.596;17.648;2024-02-15T07:28:22;6.80;92.20
22173;DHT22;11252;50.596;17.648;2024-02-15T07:30:52;6.90;92.20
22173;DHT22;11252;50.596;17.648;2024-02-15T07:33:23;7.00;92.20
22173;DHT22;11252;50.596;17.648;2024-02-15T07:35:51;7.10;92.20
22173;DHT22;11252;50.596;17.648;2024-02-15T07:38:18;7.10;92.20
22173;DHT22;11252;50.596;17.648;2024-02-15T07:40:46;7.20;92.20
22173;DHT22;11252;50.596;17.648;2024-02-15T07:43:13;7.30;92.20
22173;DHT22;11252;50.596;17.648;2024-02-15T07:45:40;7.40;92.20
22173;DHT22;11252;50.596;17.648;2024-02-15T07:48:11;7.50;92.20
22173;DHT22;11252;50.596;17.648;2024-02-15T07:50:39;7.50;92.20
22173;DHT22;11252;50.596;17.648;2024-02-15T07:53:07;7.50;92.20
22173;DHT22;11252;50.596;17.648;2024-02-15T07:55:37;7.50;92.20
22173;DHT22;11252;50.596;17.648;2024-02-15T07:58:05;7.50;92.20
22173;DHT22;11252;50.596;17.648;2024-02-15T08:00:33;7.60;92.20
22173;DHT22;11252;50.596;17.648;2024-02-15T08:03:02;7.70;92.20
22173;DHT22;11252;50.596;17.648;2024-02-15T08:05:30;7.70;92.20
22173;DHT22;11252;50.596;17.648;2024-02-15T08:07:57;7.70;92.20
22173;DHT22;11252;50.596;17.648;2024-02-15T08:10:31;7.80;92.20
22173;DHT22;11252;50.596;17.648;2024-02-15T08:12:58;8.00;92.20
22173;DHT22;11252;50.596;17.648;2024-02-15T08:15:32;8.10;92.20
22173;DHT22;11252;50.596;17.648;2024-02-15T08:18:00;8.20;92.20
22173;DHT22;11252;50.596;17.648;2024-02-15T08:20:35;8.30;92.20
22173;DHT22;11252;50.596;17.648;2024-02-15T08:23:02;8.40;92.20
22173;DHT22;11252;50.596;17.648;2024-02-15T08:25:29;8.40;92.20
22173;DHT22;11252;50.596;17.648;2024-02-15T08:27:59;8.50;92.20
22173;DHT22;11252;50.596;17.648;2024-02-15T08:30:32;8.60;92.20
22173;DHT22;11252;50.596;17.648;2024-02-15T08:32:59;8.60;92.20
22173;DHT22;11252;50.596;17.648;2024-02-15T08:35:26;8.70;92.20
22173;DHT22;11252;50.596;17.648;2024-02-15T08:37:54;8.80;92.20
22173;DHT22;11252;50.596;17.648;2024-02-15T08:40:23;8.80;92.20
22173;DHT22;11252;50.596;17.648;2024-02-15T08:42:53;8.90;92.20
22173;DHT22;11252;50.596;17.648;2024-02-15T08:45:20;8.90;92.20
22173;DHT22;11252;50.596;17.648;2024-02-15T08:47:48;9.00;92.20
22173;DHT22;11252;50.596;17.648;2024-02-15T08:50:17;9.20;92.20
22173;DHT22;11252;50.596;17.648;2024-02-15T08:52:45;9.20;92.20
22173;DHT22;11252;50.596;17.648;2024-02-15T08:55:13;9.30;92.20
22173;DHT22;11252;50.596;17.648;2024-02-15T08:57:42;9.30;92.20
22173;DHT22;11252;50.596;17.648;2024-02-15T09:00:15;9.40;92.20
22173;DHT22;11252;50.596;17.648;2024-02-15T09:02:44;9.60;92.20
22173;DHT22;11252;50.596;17.648;2024-02-15T09:05:13;9.70;92.20
22173;DHT22;11252;50.596;17.648;2024-02-15T09:07:45;9.80;92.20
22173;DHT22;11252;50.596;17.648;2024-02-15T09:10:17;10.10;92.20
22173;DHT22;11252;50.596;17.648;2024-02-15T09:12:45;10.50;92.20
22173;DHT22;11252;50.596;17.648;2024-02-15T09:15:16;10.90;92.20
22173;DHT22;11252;50.596;17.648;2024-02-15T09:17:44;11.10;92.20
22173;DHT22;11252;50.596;17.648;2024-02-15T09:20:16;11.20;92.20
22173;DHT22;11252;50.596;17.648;2024-02-15T09:22:50;11.30;92.20
22173;DHT22;11252;50.596;17.648;2024-02-15T09:25:19;11.50;92.20
22173;DHT22;11252;50.596;17.648;2024-02-15T09:27:46;11.60;92.20
22173;DHT22;11252;50.596;17.648;2024-02-15T09:30:14;11.60;92.20
22173;DHT22;11252;50.596;17.648;2024-02-15T09:32:44;11.70;92.20
22173;DHT22;11252;50.596;17.648;2024-02-15T09:35:15;11.60;92.20
22173;DHT22;11252;50.596;17.648;2024-02-15T09:37:47;11.70;92.20
22173;DHT22;11252;50.596;17.648;2024-02-15T09:40:19;11.80;92.20
22173;DHT22;11252;50.596;17.648;2024-02-15T09:42:50;11.80;92.20
22173;DHT22;11252;50.596;17.648;2024-02-15T09:45:18;11.70;92.20
22173;DHT22;11252;50.596;17.648;2024-02-15T09:47:47;11.80;92.20
22173;DHT22;11252;50.596;17.648;2024-02-15T09:50:17;11.90;92.20
22173;DHT22;11252;50.596;17.648;2024-02-15T09:52:49;12.00;92.20
22173;DHT22;11252;50.596;17.648;2024-02-15T09:55:17;11.70;92.20
22173;DHT22;11252;50.596;17.648;2024-02-15T09:57:49;11.80;92.20
22173;DHT22;11252;50.596;17.648;2024-02-15T10:00:17;11.90;92.20
22173;DHT22;11252;50.596;17.648;2024-02-15T10:02:49;12.10;92.20
22173;DHT22;11252;50.596;17.648;2024-02-15T10:05:18;12.30;92.20
22173;DHT22;11252;50.596;17.648;2024-02-15T10:07:46;12.30;92.20
22173;DHT22;11252;50.596;17.648;2024-02-15T10:10:21;12.30;92.20
22173;DHT22;11252;50.596;17.648;2024-02-15T10:12:53;12.40;92.20
22173;DHT22;11252;50.596;17.648;2024-02-15T10:15:40;12.60;92.20
22173;DHT22;11252;50.596;17.648;2024-02-15T10:18:09;12.60;92.20
22173;DHT22;11252;50.596;17.648;2024-02-15T10:20:39;12.60;92.20
22173;DHT22;11252;50.596;17.648;2024-02-15T10:25:37;12.80;92.20
22173;DHT22;11252;50.596;17.648;2024-02-15T10:28:08;12.90;92.20
22173;DHT22;11252;50.596;17.648;2024-02-15T10:30:40;13.20;92.20
22173;DHT22;11252;50.596;17.648;2024-02-15T10:33:28;13.40;92.20
22173;DHT22;11252;50.596;17.648;2024-02-15T10:36:11;13.50;92.20
22173;DHT22;11252;50.596;17.648;2024-02-15T10:38:40;13.70;92.20
22173;DHT22;11252;50.596;17.648;2024-02-15T10:41:09;13.70;92.20
22173;DHT22;11252;50.596;17.648;2024-02-15T10:43:41;13.70;92.20
22173;DHT22;11252;50.596;17.648;2024-02-15T10:46:13;13.40;92.20
22173;DHT22;11252;50.596;17.648;2024-02-15T10:48:41;13.50;92.20
22173;DHT22;11252;50.596;17.648;2024-02-15T10:51:14;13.50;92.20
22173;DHT22;11252;50.596;17.648;2024-02-15T10:53:50;13.50;92.20
22173;DHT22;11252;50.596;17.648;2024-02-15T10:56:22;13.40;92.20
22173;DHT22;11252;50.596;17.648;2024-02-15T10:58:59;13.50;92.20
22173;DHT22;11252;50.596;17.648;2024-02-15T11:01:28;13.50;92.20
22173;DHT22;11252;50.596;17.648;2024-02-15T11:04:00;13.60;92.20
22173;DHT22;11252;50.596;17.648;2024-02-15T11:06:30;13.60;92.20
22173;DHT22;11252;50.596;17.648;2024-02-15T11:09:01;13.70;92.20
22173;DHT22;11252;50.596;17.648;2024-02-15T11:11:30;13.70;92.20
22173;DHT22;11252;50.596;17.648;2024-02-15T11:16:52;13.70;92.20
22173;DHT22;11252;50.596;17.648;2024-02-15T11:22:16;14.00;92.20
22173;DHT22;11252;50.596;17.648;2024-02-15T11:24:54;14.00;92.20
22173;DHT22;11252;50.596;17.648;2024-02-15T11:27:29;14.30;92.20
22173;DHT22;11252;50.596;17.648;2024-02-15T11:29:58;14.50;92.20
22173;DHT22;11252;50.596;17.648;2024-02-15T11:32:47;14.80;92.20
22173;DHT22;11252;50.596;17.648;2024-02-15T11:35:22;14.90;92.20
22173;DHT22;11252;50.596;17.648;2024-02-15T11:37:51;15.20;92.20
22173;DHT22;11252;50.596;17.648;2024-02-15T11:42:59;15.40;92.20
22173;DHT22;11252;50.596;17.648;2024-02-15T11:45:29;15.20;91.90
22173;DHT22;11252;50.596;17.648;2024-02-15T11:48:14;15.20;92.20
22173;DHT22;11252;50.596;17.648;2024-02-15T11:50:42;15.20;92.20
22173;DHT22;11252;50.596;17.648;2024-02-15T11:53:10;15.00;92.20
22173;DHT22;11252;50.596;17.648;2024-02-15T11:55:41;14.90;92.20
22173;DHT22;11252;50.596;17.648;2024-02-15T11:58:13;15.00;92.20
22173;DHT22;11252;50.596;17.648;2024-02-15T12:00:59;15.10;92.10
22173;DHT22;11252;50.596;17.648;2024-02-15T12:03:45;15.00;92.00
22173;DHT22;11252;50.596;17.648;2024-02-15T12:06:33;15.00;91.90
22173;DHT22;11252;50.596;17.648;2024-02-15T12:09:19;14.90;92.10
22173;DHT22;11252;50.596;17.648;2024-02-15T12:12:06;15.00;91.80
22173;DHT22;11252;50.596;17.648;2024-02-15T12:15:02;14.90;91.80
22173;DHT22;11252;50.596;17.648;2024-02-15T12:17:49;14.90;92.10
22173;DHT22;11252;50.596;17.648;2024-02-15T12:20:35;14.80;92.20
22173;DHT22;11252;50.596;17.648;2024-02-15T12:23:03;14.80;91.90
22173;DHT22;11252;50.596;17.648;2024-02-15T12:25:34;14.70;92.20
22173;DHT22;11252;50.596;17.648;2024-02-15T12:28:04;14.80;92.20
22173;DHT22;11252;50.596;17.648;2024-02-15T12:30:35;14.90;92.20
22173;DHT22;11252;50.596;17.648;2024-02-15T12:33:12;15.10;92.20
22173;DHT22;11252;50.596;17.648;2024-02-15T12:35:40;15.00;91.50
22173;DHT22;11252;50.596;17.648;2024-02-15T12:38:12;15.00;91.60
22173;DHT22;11252;50.596;17.648;2024-02-15T12:40:45;15.00;91.30
22173;DHT22;11252;50.596;17.648;2024-02-15T12:43:15;15.10;91.90
22173;DHT22;11252;50.596;17.648;2024-02-15T12:45:42;15.10;91.70
22173;DHT22;11252;50.596;17.648;2024-02-15T12:48:10;15.40;91.40
22173;DHT22;11252;50.596;17.648;2024-02-15T12:50:38;16.10;89.30
22173;DHT22;11252;50.596;17.648;2024-02-15T12:53:05;16.70;88.30
22173;DHT22;11252;50.596;17.648;2024-02-15T12:55:36;16.30;86.50
22173;DHT22;11252;50.596;17.648;2024-02-15T12:58:07;16.30;88.20
22173;DHT22;11252;50.596;17.648;2024-02-15T13:00:40;16.40;87.60
22173;DHT22;11252;50.596;17.648;2024-02-15T13:03:12;16.20;88.20
22173;DHT22;11252;50.596;17.648;2024-02-15T13:05:43;15.80;89.10
22173;DHT22;11252;50.596;17.648;2024-02-15T13:08:11;15.80;89.40
22173;DHT22;11252;50.596;17.648;2024-02-15T13:10:41;15.70;89.20
22173;DHT22;11252;50.596;17.648;2024-02-15T13:13:09;15.70;89.70
22173;DHT22;11252;50.596;17.648;2024-02-15T13:15:37;15.90;88.90
22173;DHT22;11252;50.596;17.648;2024-02-15T13:18:06;15.70;90.00
22173;DHT22;11252;50.596;17.648;2024-02-15T13:20:37;15.70;90.00
22173;DHT22;11252;50.596;17.648;2024-02-15T13:23:09;15.60;90.00
22173;DHT22;11252;50.596;17.648;2024-02-15T13:25:50;15.70;90.50
22173;DHT22;11252;50.596;17.648;2024-02-15T13:28:17;16.00;89.60
22173;DHT22;11252;50.596;17.648;2024-02-15T13:30:45;16.60;89.20
22173;DHT22;11252;50.596;17.648;2024-02-15T13:33:22;17.20;88.10
22173;DHT22;11252;50.596;17.648;2024-02-15T13:35:49;17.20;85.70
22173;DHT22;11252;50.596;17.648;2024-02-15T13:38:19;16.80;85.90
22173;DHT22;11252;50.596;17.648;2024-02-15T13:40:51;16.60;87.10
22173;DHT22;11252;50.596;17.648;2024-02-15T13:43:23;16.60;87.60
22173;DHT22;11252;50.596;17.648;2024-02-15T13:45:55;16.40;87.60
22173;DHT22;11252;50.596;17.648;2024-02-15T13:48:22;15.90;88.50
22173;DHT22;11252;50.596;17.648;2024-02-15T13:50:52;16.00;89.20
22173;DHT22;11252;50.596;17.648;2024-02-15T13:53:25;16.10;90.10
22173;DHT22;11252;50.596;17.648;2024-02-15T13:55:55;16.60;88.60
22173;DHT22;11252;50.596;17.648;2024-02-15T13:58:27;16.90;87.20
22173;DHT22;11252;50.596;17.648;2024-02-15T14:00:55;17.60;87.50
22173;DHT22;11252;50.596;17.648;2024-02-15T14:03:25;18.60;84.70
22173;DHT22;11252;50.596;17.648;2024-02-15T14:05:52;18.70;82.90
22173;DHT22;11252;50.596;17.648;2024-02-15T14:08:19;19.60;82.30
22173;DHT22;11252;50.596;17.648;2024-02-15T14:10:47;20.30;80.10
22173;DHT22;11252;50.596;17.648;2024-02-15T14:13:14;20.30;78.60
22173;DHT22;11252;50.596;17.648;2024-02-15T14:15:41;20.00;80.20
22173;DHT22;11252;50.596;17.648;2024-02-15T14:18:11;20.60;78.20
22173;DHT22;11252;50.596;17.648;2024-02-15T14:20:47;21.10;78.10
22173;DHT22;11252;50.596;17.648;2024-02-15T14:23:15;21.40;76.70
22173;DHT22;11252;50.596;17.648;2024-02-15T14:25:43;21.30;76.30
22173;DHT22;11252;50.596;17.648;2024-02-15T14:28:14;21.20;77.10
22173;DHT22;11252;50.596;17.648;2024-02-15T14:30:42;21.40;76.70
22173;DHT22;11252;50.596;17.648;2024-02-15T14:33:29;21.50;76.20
22173;DHT22;11252;50.596;17.648;2024-02-15T14:35:59;20.80;76.40
22173;DHT22;11252;50.596;17.648;2024-02-15T14:38:27;20.30;78.00
22173;DHT22;11252;50.596;17.648;2024-02-15T14:40:56;19.10;79.40
22173;DHT22;11252;50.596;17.648;2024-02-15T14:43:25;18.50;82.10
22173;DHT22;11252;50.596;17.648;2024-02-15T14:45:54;17.90;84.00
22173;DHT22;11252;50.596;17.648;2024-02-15T14:48:24;17.80;84.70
22173;DHT22;11252;50.596;17.648;2024-02-15T14:50:52;17.80;84.50
22173;DHT22;11252;50.596;17.648;2024-02-15T14:53:20;17.80;84.80
22173;DHT22;11252;50.596;17.648;2024-02-15T14:55:48;18.00;84.00
22173;DHT22;11252;50.596;17.648;2024-02-15T14:58:19;18.00;83.60
22173;DHT22;11252;50.596;17.648;2024-02-15T15:00:46;17.60;83.80
22173;DHT22;11252;50.596;17.648;2024-02-15T15:03:16;17.50;84.80
22173;DHT22;11252;50.596;17.648;2024-02-15T15:05:44;17.50;84.60
22173;DHT22;11252;50.596;17.648;2024-02-15T15:08:31;17.20;85.70
22173;DHT22;11252;50.596;17.648;2024-02-15T15:11:20;16.80;86.70
22173;DHT22;11252;50.596;17.648;2024-02-15T15:14:23;16.00;88.80
22173;DHT22;11252;50.596;17.648;2024-02-15T15:16:51;15.40;90.70
22173;DHT22;11252;50.596;17.648;2024-02-15T15:19:18;15.40;91.40
22173;DHT22;11252;50.596;17.648;2024-02-15T15:21:46;15.20;91.80
22173;DHT22;11252;50.596;17.648;2024-02-15T15:24:13;14.90;92.20
22173;DHT22;11252;50.596;17.648;2024-02-15T15:26:41;14.90;92.20
22173;DHT22;11252;50.596;17.648;2024-02-15T15:29:11;14.60;92.20
22173;DHT22;11252;50.596;17.648;2024-02-15T15:31:43;14.40;92.20
22173;DHT22;11252;50.596;17.648;2024-02-15T15:34:11;14.40;92.20
22173;DHT22;11252;50.596;17.648;2024-02-15T15:36:38;14.40;92.20
22173;DHT22;11252;50.596;17.648;2024-02-15T15:39:05;14.40;92.20
22173;DHT22;11252;50.596;17.648;2024-02-15T15:41:37;14.40;92.20
22173;DHT22;11252;50.596;17.648;2024-02-15T15:44:05;14.30;92.20
22173;DHT22;11252;50.596;17.648;2024-02-15T15:46:32;14.30;92.20
22173;DHT22;11252;50.596;17.648;2024-02-15T15:49:01;14.30;92.20
22173;DHT22;11252;50.596;17.648;2024-02-15T15:51:28;14.20;92.20
22173;DHT22;11252;50.596;17.648;2024-02-15T15:53:55;14.10;92.20
22173;DHT22;11252;50.596;17.648;2024-02-15T15:56:23;14.10;92.20